Time;durP1;ratioP1;P1;durP2;ratioP2;P2;SDS_P1;SDS_P2;PMS_P1;PMS_P2;Temp;Humidity;BMP_temperature;BMP_pressure;BME280_temperature;BME280_humidity;BME280_pressure;Samples;Min_cycle;Max_cycle;Signal;HPM_P1;HPM_P2
2021/01/08 00:01:10;;;;;;;8.87;5.30;;;1.60;99.90;;;2.23;100.00;97743.13;4997674;28;20468;-83
2021/01/08 00:03:40;;;;;;;8.47;5.10;;;1.70;99.90;;;2.23;100.00;97748.28;5006271;28;20503;-82
2021/01/08 00:06:09;;;;;;;7.10;4.70;;;1.70;99.90;;;2.23;100.00;97737.97;4996234;28;20459;-83
2021/01/08 00:08:37;;;;;;;8.30;5.90;;;1.60;99.90;;;2.23;100.00;97738.78;4996909;28;20479;-82
2021/01/08 00:11:06;;;;;;;7.27;4.00;;;1.70;99.90;;;2.23;100.00;97745.69;4999708;28;20478;-82
2021/01/08 00:13:33;;;;;;;7.67;4.37;;;1.70;99.90;;;2.21;100.00;97740.69;4998477;28;20478;-82
2021/01/08 00:16:01;;;;;;;10.57;4.37;;;1.60;99.90;;;2.22;100.00;97734.56;4998765;28;20483;-82
2021/01/08 00:18:30;;;;;;;4.93;3.70;;;1.60;99.90;;;2.17;100.00;97736.78;5000246;28;21033;-82
2021/01/08 00:20:58;;;;;;;6.20;4.67;;;1.50;99.90;;;2.15;100.00;97738.69;4996637;28;20549;-82
2021/01/08 00:23:26;;;;;;;5.93;3.83;;;1.50;99.90;;;2.17;100.00;97736.78;4997620;28;20506;-83
2021/01/08 00:25:53;;;;;;;11.63;4.70;;;1.50;99.90;;;2.19;100.00;97740.00;4998094;28;20473;-83
2021/01/08 00:28:21;;;;;;;7.70;4.40;;;1.50;99.90;;;2.14;100.00;97737.06;5000001;28;20478;-83
2021/01/08 00:30:48;;;;;;;6.67;4.40;;;1.40;99.90;;;2.14;100.00;97731.91;4998278;28;20516;-82
2021/01/08 00:33:16;;;;;;;8.70;4.57;;;1.50;99.90;;;2.15;100.00;97736.13;4997615;28;20547;-82
2021/01/08 00:35:44;;;;;;;5.30;4.10;;;1.50;99.90;;;2.16;100.00;97726.59;4998511;28;20932;-83
2021/01/08 00:38:12;;;;;;;5.73;4.23;;;1.40;99.90;;;2.14;100.00;97734.47;4997303;28;20511;-83
2021/01/08 00:40:40;;;;;;;7.53;4.03;;;1.40;99.90;;;2.17;100.00;97734.19;4999413;28;20533;-83
2021/01/08 00:43:07;;;;;;;5.83;3.80;;;1.50;99.90;;;2.15;100.00;97728.38;5000167;28;20525;-82
2021/01/08 00:45:35;;;;;;;4.57;3.57;;;1.50;99.90;;;2.14;100.00;97731.91;4998113;28;20974;-82
2021/01/08 00:48:03;;;;;;;4.57;3.33;;;1.50;99.90;;;2.17;100.00;97723.06;4999202;28;20458;-82
2021/01/08 00:50:30;;;;;;;4.97;3.53;;;1.60;99.90;;;2.15;100.00;97733.53;4997916;28;20477;-82
2021/01/08 00:52:59;;;;;;;3.67;3.33;;;1.50;99.90;;;2.16;100.00;97729.16;4998246;28;20471;-82
2021/01/08 00:55:26;;;;;;;3.63;2.80;;;1.50;99.90;;;2.16;100.00;97735.13;4996814;28;20975;-82
2021/01/08 00:57:54;;;;;;;4.80;3.43;;;1.60;99.90;;;2.17;100.00;97734.19;4999167;28;20470;-82
2021/01/08 01:00:22;;;;;;;3.90;3.10;;;1.60;99.90;;;2.15;100.00;97728.38;4997887;28;21154;-82
2021/01/08 01:02:49;;;;;;;5.10;3.37;;;1.50;99.90;;;2.13;100.00;97725.09;4998485;28;20842;-83
2021/01/08 01:05:17;;;;;;;4.07;3.00;;;1.50;99.90;;;2.14;100.00;97731.91;4996903;28;20532;-82
2021/01/08 01:07:49;;;;;;;4.20;3.70;;;1.50;99.90;;;2.16;100.00;97729.97;4998291;28;20984;-82
2021/01/08 01:10:17;;;;;;;3.70;3.00;;;1.50;99.90;;;2.16;100.00;97729.16;4997085;28;20525;-82
2021/01/08 01:12:45;;;;;;;2.80;2.20;;;1.60;99.90;;;2.17;100.00;97734.19;5000821;28;20460;-83
2021/01/08 01:15:17;;;;;;;4.40;3.20;;;1.60;99.90;;;2.12;100.00;97723.47;4996423;28;20483;-82
2021/01/08 01:17:45;;;;;;;2.77;2.47;;;1.60;99.90;;;2.11;100.00;97736.53;4998258;28;20472;-83
2021/01/08 01:20:14;;;;;;;4.47;3.30;;;1.60;99.90;;;2.12;100.00;97733.78;4996302;28;21208;-82
2021/01/08 01:22:41;;;;;;;3.50;2.63;;;1.50;99.90;;;2.15;100.00;97733.53;4996737;28;21074;-82
2021/01/08 01:25:10;;;;;;;5.60;3.23;;;1.50;99.90;;;2.16;100.00;97737.72;4998706;28;21047;-82
2021/01/08 01:27:39;;;;;;;4.70;3.00;;;1.60;99.90;;;2.15;100.00;97738.69;4997162;28;20470;-82
2021/01/08 01:30:09;;;;;;;4.33;3.00;;;1.70;99.90;;;2.14;100.00;97736.25;4999468;28;20468;-83
2021/01/08 01:32:36;;;;;;;4.53;2.93;;;1.60;99.90;;;2.16;100.00;97732.56;4999258;28;20476;-82
2021/01/08 01:35:06;;;;;;;4.80;3.53;;;1.70;99.90;;;2.15;100.00;97738.69;4994926;28;20475;-82
2021/01/08 01:37:33;;;;;;;4.80;3.57;;;1.60;99.90;;;2.15;100.00;97741.28;5000904;28;20491;-82
2021/01/08 01:40:01;;;;;;;4.23;2.90;;;1.50;99.90;;;2.20;100.00;97744.22;5002540;28;20471;-82
2021/01/08 01:42:29;;;;;;;3.97;2.97;;;1.60;99.90;;;2.19;100.00;97740.00;5001491;28;20507;-82
2021/01/08 01:44:57;;;;;;;3.77;3.37;;;1.70;99.90;;;2.18;100.00;97746.16;5000292;28;20521;-83
2021/01/08 01:47:26;;;;;;;4.57;3.20;;;1.60;99.90;;;2.20;100.00;97748.56;5001867;28;20479;-83
2021/01/08 01:49:54;;;;;;;3.40;2.77;;;1.60;99.90;;;2.16;100.00;97745.44;5002441;28;20465;-82
2021/01/08 01:52:22;;;;;;;5.97;3.07;;;1.60;99.90;;;2.18;100.00;97743.56;5001275;28;20476;-83
2021/01/08 01:54:50;;;;;;;4.47;3.30;;;1.50;99.90;;;2.18;100.00;97748.72;5000092;28;20518;-83
2021/01/08 01:57:17;;;;;;;3.30;2.93;;;1.50;99.90;;;2.19;100.00;97745.16;5000965;28;20984;-82
2021/01/08 01:59:45;;;;;;;4.70;3.10;;;1.50;99.90;;;2.23;100.00;97740.53;5002776;28;20460;-83
2021/01/08 02:02:23;;;;;;;4.13;3.20;;;1.50;99.90;;;2.25;100.00;97742.03;5002096;28;20561;-82
2021/01/08 02:04:55;;;;;;;4.40;3.23;;;1.70;99.90;;;2.22;100.00;97744.88;4998853;28;20915;-83
2021/01/08 02:07:25;;;;;;;5.07;3.20;;;1.60;99.90;;;2.22;100.00;97750.03;5001012;28;20482;-82
2021/01/08 02:09:55;;;;;;;5.23;3.20;;;1.60;99.90;;;2.20;100.00;97740.81;4999001;28;20474;-82
2021/01/08 02:12:26;;;;;;;4.50;3.13;;;1.50;99.90;;;2.24;100.00;97748.16;4999875;28;20471;-83
2021/01/08 02:14:55;;;;;;;3.07;2.77;;;1.50;99.90;;;2.23;100.00;97743.94;5000159;28;21047;-83
2021/01/08 02:17:25;;;;;;;4.60;2.80;;;1.50;99.90;;;2.23;100.00;97741.34;5000753;28;21019;-82
2021/01/08 02:20:01;;;;;;;7.23;4.47;;;1.50;99.90;;;2.20;100.00;97740.81;4997734;28;20475;-82
2021/01/08 02:22:48;;;;;;;4.73;3.00;;;1.50;99.90;;;2.20;100.00;97743.41;5000535;28;20501;-82
2021/01/08 02:25:21;;;;;;;4.17;2.87;;;1.40;99.90;;;2.20;100.00;97746.81;4999067;28;20537;-82
2021/01/08 02:28:18;;;;;;;4.83;3.00;;;1.50;99.90;;;2.21;100.00;97738.13;4999770;28;21058;-82
2021/01/08 02:30:47;;;;;;;3.83;2.90;;;1.50;99.90;;;2.24;100.00;97743.00;4999796;28;20500;-82
2021/01/08 02:33:15;;;;;;;3.27;2.70;;;1.60;99.90;;;2.23;100.00;97746.50;5002014;28;20501;-83
2021/01/08 02:35:47;;;;;;;3.90;3.13;;;1.50;99.90;;;2.24;100.00;97745.56;5000698;28;20880;-83
2021/01/08 02:38:17;;;;;;;4.27;3.00;;;1.60;99.90;;;2.25;100.00;97744.63;5000966;28;20495;-82
2021/01/08 02:40:47;;;;;;;4.40;3.40;;;1.50;99.90;;;2.27;100.00;97747.03;5001719;28;20463;-83
2021/01/08 02:43:21;;;;;;;3.70;3.20;;;1.60;99.90;;;2.22;100.00;97744.88;4999157;28;20585;-82
2021/01/08 02:45:49;;;;;;;4.53;3.80;;;1.50;99.90;;;2.24;100.00;97744.75;5001556;28;20471;-82
2021/01/08 02:48:17;;;;;;;3.47;2.83;;;1.60;99.90;;;2.26;100.00;97748.81;5000412;28;20518;-82
2021/01/08 02:50:45;;;;;;;4.37;3.10;;;1.60;99.90;;;2.28;100.00;97744.34;4998824;28;20493;-82
2021/01/08 02:53:18;;;;;;;4.27;2.80;;;1.70;99.90;;;2.30;100.00;97746.75;5002133;28;20454;-83
2021/01/08 02:55:58;;;;;;;3.90;3.17;;;1.70;99.90;;;2.30;100.00;97746.75;4998919;28;20475;-82
2021/01/08 02:58:28;;;;;;;4.00;2.47;;;1.70;99.90;;;2.30;100.00;97745.00;5000379;28;20499;-82
2021/01/08 03:00:58;;;;;;;3.53;3.10;;;1.70;99.90;;;2.29;100.00;97748.50;5001558;28;20475;-82
2021/01/08 03:03:29;;;;;;;4.60;2.53;;;1.70;99.90;;;2.29;100.00;97745.94;4999975;28;20899;-82
2021/01/08 03:06:00;;;;;;;3.10;2.50;;;1.60;99.90;;;2.28;100.00;97741.75;5000070;28;20470;-82
2021/01/08 03:08:31;;;;;;;2.67;2.47;;;1.70;99.90;;;2.31;100.00;97745.81;4998746;28;20470;-82
2021/01/08 03:11:01;;;;;;;2.77;2.47;;;1.60;99.90;;;2.29;100.00;97745.94;5001534;28;20898;-82
2021/01/08 03:13:31;;;;;;;3.23;2.77;;;1.60;99.90;;;2.18;100.00;97747.91;4993900;28;20471;-81
2021/01/08 03:15:59;;;;;;;4.00;2.83;;;1.50;99.90;;;2.19;100.00;97742.59;4999749;28;20862;-82
2021/01/08 03:18:27;;;;;;;2.83;2.53;;;1.40;99.90;;;2.17;100.00;97741.13;5000171;28;21001;-82
2021/01/08 03:20:54;;;;;;;2.90;2.37;;;1.40;99.90;;;2.18;100.00;97737.59;4997597;28;20502;-82
2021/01/08 03:23:22;;;;;;;4.93;2.57;;;1.40;99.90;;;2.20;100.00;97736.47;4999917;28;20525;-82
2021/01/08 03:25:49;;;;;;;3.10;2.70;;;1.50;99.90;;;2.22;100.00;97739.72;5000511;28;20868;-82
2021/01/08 03:28:18;;;;;;;2.63;2.37;;;1.50;99.90;;;2.19;100.00;97731.44;4998646;28;20468;-82
2021/01/08 03:30:46;;;;;;;2.20;2.00;;;1.40;99.90;;;2.25;100.00;97731.72;4999982;28;20879;-83
2021/01/08 03:33:13;;;;;;;2.33;1.97;;;1.60;99.90;;;2.26;100.00;97733.31;4997683;28;20467;-82
2021/01/08 03:35:41;;;;;;;3.23;2.70;;;1.70;99.90;;;2.24;100.00;97735.25;4998670;28;20864;-82
2021/01/08 03:38:08;;;;;;;2.47;2.07;;;1.70;99.90;;;2.25;100.00;97728.31;5000665;28;20495;-82
2021/01/08 03:40:36;;;;;;;3.10;2.10;;;1.60;99.90;;;2.26;100.00;97725.59;5001033;28;20734;-82
2021/01/08 03:43:04;;;;;;;2.50;2.10;;;1.60;99.90;;;2.24;100.00;97727.50;5000146;28;20510;-82
2021/01/08 03:45:32;;;;;;;1.77;1.67;;;1.70;99.90;;;2.26;100.00;97729.94;4999567;28;20525;-81
2021/01/08 03:48:00;;;;;;;1.90;1.80;;;1.60;99.90;;;2.26;100.00;97725.59;4997503;28;20476;-81
2021/01/08 03:50:27;;;;;;;2.20;1.87;;;1.70;99.90;;;2.26;100.00;97722.19;4998433;28;20512;-81
2021/01/08 03:52:55;;;;;;;1.90;1.80;;;1.70;99.90;;;2.25;100.00;97728.31;4999757;28;20468;-81
2021/01/08 03:55:23;;;;;;;1.93;1.83;;;1.80;99.90;;;2.22;100.00;97729.41;4997065;28;20578;-81
2021/01/08 03:57:51;;;;;;;1.70;1.60;;;1.70;99.90;;;2.17;100.00;97726.47;4999758;28;20928;-81
2021/01/08 04:00:20;;;;;;;2.30;1.80;;;1.70;99.90;;;2.19;100.00;97728.88;4998426;28;20550;-81
2021/01/08 04:02:49;;;;;;;3.20;2.07;;;1.70;99.90;;;2.19;100.00;97724.53;5000080;28;20480;-82
2021/01/08 04:05:16;;;;;;;3.13;2.27;;;1.60;99.90;;;2.22;100.00;97723.47;4999651;28;20467;-81
2021/01/08 04:07:44;;;;;;;2.17;1.97;;;1.60;99.90;;;2.20;100.00;97726.16;4998492;28;20475;-81
2021/01/08 04:10:12;;;;;;;2.30;2.10;;;1.60;99.90;;;2.21;100.00;97727.81;5000638;28;20455;-81
2021/01/08 04:12:39;;;;;;;1.87;1.77;;;1.60;99.90;;;2.23;100.00;97725.88;4998979;28;20509;-81
2021/01/08 04:15:08;;;;;;;2.43;1.50;;;1.50;99.90;;;2.24;100.00;97727.50;4998130;28;20494;-81
2021/01/08 04:17:36;;;;;;;2.30;2.10;;;1.60;99.90;;;2.24;100.00;97722.34;4998899;28;20878;-81
2021/01/08 04:20:06;;;;;;;4.40;2.37;;;1.60;99.90;;;2.21;100.00;97726.97;4998952;28;20991;-81
2021/01/08 04:22:34;;;;;;;2.33;2.00;;;1.50;99.90;;;2.19;100.00;97724.53;4998942;28;20491;-81
2021/01/08 04:25:03;;;;;;;2.37;2.17;;;1.50;99.90;;;2.21;100.00;97729.56;4999055;28;20489;-81
2021/01/08 04:27:30;;;;;;;3.00;2.13;;;1.60;99.90;;;2.14;100.00;97721.59;4997367;28;21166;-81
2021/01/08 04:29:58;;;;;;;3.00;1.97;;;1.50;99.90;;;2.18;100.00;97730.66;4998334;28;20974;-81
2021/01/08 04:32:25;;;;;;;2.77;2.47;;;1.50;99.90;;;2.18;100.00;97728.09;4998090;28;20459;-82
2021/01/08 04:34:53;;;;;;;3.47;2.47;;;1.50;99.90;;;2.22;100.00;97729.41;4997866;28;20554;-81
2021/01/08 04:37:21;;;;;;;2.03;1.80;;;1.60;99.90;;;2.24;100.00;97729.28;4999079;28;20506;-81
2021/01/08 04:39:49;;;;;;;2.90;2.53;;;1.70;99.90;;;2.17;100.00;97729.03;4999382;28;20455;-82
2021/01/08 04:42:17;;;;;;;2.53;2.30;;;1.60;99.90;;;2.16;100.00;97729.97;4998715;28;20513;-81
2021/01/08 04:44:44;;;;;;;4.00;2.70;;;1.50;99.90;;;2.14;100.00;97737.06;4995632;28;20516;-80
2021/01/08 04:47:15;;;;;;;2.93;2.20;;;1.50;99.90;;;2.14;100.00;97721.59;4997599;28;20983;-81
2021/01/08 04:49:43;;;;;;;3.53;2.60;;;1.60;99.90;;;2.14;100.00;97729.31;4997809;28;20470;-82
2021/01/08 04:52:13;;;;;;;3.50;2.70;;;1.50;99.90;;;2.14;100.00;97726.75;4998379;28;20841;-81
2021/01/08 04:54:42;;;;;;;2.60;2.00;;;1.50;99.90;;;2.18;100.00;97738.41;4998349;28;20482;-81
2021/01/08 04:57:13;;;;;;;2.27;2.17;;;1.50;99.90;;;2.21;100.00;97737.31;4997187;28;20468;-81
2021/01/08 04:59:41;;;;;;;3.57;1.90;;;1.60;99.90;;;2.18;100.00;97730.66;4998957;28;20463;-81
2021/01/08 05:02:09;;;;;;;2.53;1.93;;;1.60;99.90;;;2.09;100.00;97731.50;4997689;28;20906;-82
2021/01/08 05:04:37;;;;;;;3.17;2.17;;;1.60;99.90;;;2.02;100.00;97735.59;4998483;28;20510;-81
2021/01/08 05:07:05;;;;;;;4.20;2.40;;;1.40;99.90;;;2.00;100.00;97740.09;4998500;28;20464;-81
2021/01/08 05:09:33;;;;;;;2.33;2.13;;;1.40;99.90;;;1.98;100.00;97735.06;5000595;28;20455;-81
2021/01/08 05:12:01;;;;;;;2.30;2.10;;;1.40;99.90;;;2.02;100.00;97738.19;4997043;28;20470;-81
2021/01/08 05:14:29;;;;;;;3.60;2.60;;;1.40;99.90;;;1.96;100.00;97743.91;4999802;28;20871;-81
2021/01/08 05:16:58;;;;;;;3.50;2.40;;;1.40;99.90;;;1.99;100.00;97741.84;5003490;28;20471;-81
2021/01/08 05:19:26;;;;;;;3.90;2.90;;;1.40;99.90;;;1.99;100.00;97741.03;5002344;28;21041;-81
2021/01/08 05:21:54;;;;;;;3.77;2.23;;;1.30;99.90;;;2.03;100.00;97734.66;5000321;28;20538;-81
2021/01/08 05:24:23;;;;;;;2.40;2.13;;;1.40;99.90;;;2.04;100.00;97744.03;5003114;28;20511;-81
2021/01/08 05:26:51;;;;;;;4.27;2.53;;;1.40;99.90;;;2.07;100.00;97743.75;5002068;28;20509;-82
2021/01/08 05:29:19;;;;;;;2.87;2.53;;;1.50;99.90;;;2.02;100.00;97743.34;5001053;28;20455;-81
2021/01/08 05:31:48;;;;;;;3.57;2.33;;;1.50;99.90;;;2.02;100.00;97744.16;4999435;28;20467;-81
2021/01/08 05:34:26;;;;;;;6.03;2.97;;;1.40;99.90;;;2.04;100.00;97746.59;5001857;28;20805;-81
2021/01/08 05:36:54;;;;;;;3.33;2.87;;;1.50;99.90;;;2.00;100.00;97747.81;5002170;28;20490;-81
2021/01/08 05:39:23;;;;;;;3.60;2.60;;;1.40;99.90;;;2.01;100.00;97746.88;5002896;28;20556;-81
2021/01/08 05:41:51;;;;;;;4.13;2.50;;;1.40;99.90;;;2.03;100.00;97744.97;5002678;28;20473;-80
2021/01/08 05:44:21;;;;;;;3.00;2.30;;;1.40;99.90;;;2.04;100.00;97749.19;5002940;28;20501;-81
2021/01/08 05:46:49;;;;;;;4.20;2.90;;;1.40;99.90;;;2.06;100.00;97749.84;5003489;28;20473;-81
2021/01/08 05:49:20;;;;;;;2.43;2.20;;;1.40;99.90;;;2.03;100.00;97750.13;4999867;28;20559;-81
2021/01/08 05:51:48;;;;;;;3.07;2.53;;;1.40;99.90;;;2.02;100.00;97748.50;5000099;28;21047;-81
2021/01/08 05:54:16;;;;;;;3.50;2.90;;;1.40;99.90;;;2.00;100.00;97745.25;4999088;28;20470;-81
2021/01/08 05:56:46;;;;;;;4.43;2.47;;;1.40;99.90;;;2.02;100.00;97753.66;5002046;28;20463;-81
2021/01/08 05:59:13;;;;;;;3.00;2.50;;;1.40;99.90;;;2.02;100.00;97759.63;5002586;28;20459;-81
2021/01/08 06:01:42;;;;;;;6.00;2.80;;;1.40;99.90;;;1.99;100.00;97756.50;4998336;28;20470;-81
2021/01/08 06:04:10;;;;;;;3.30;2.60;;;1.40;99.90;;;1.99;100.00;97757.31;5001076;28;21026;-81
2021/01/08 06:06:43;;;;;;;4.00;3.00;;;1.30;99.90;;;1.96;100.00;97764.53;5002344;28;20468;-81
2021/01/08 06:09:13;;;;;;;3.10;2.50;;;1.30;99.90;;;1.98;100.00;97760.03;5000810;28;20474;-81
2021/01/08 06:11:45;;;;;;;4.73;2.30;;;1.30;99.90;;;1.99;100.00;97764.25;5001116;28;20846;-81
2021/01/08 06:14:16;;;;;;;4.83;3.03;;;1.40;99.90;;;1.94;100.00;97758.72;4999753;28;20989;-80
2021/01/08 06:16:47;;;;;;;3.20;2.47;;;1.30;99.90;;;1.92;100.00;97763.19;5003864;28;20490;-81
2021/01/08 06:19:16;;;;;;;6.23;3.53;;;1.30;99.90;;;1.90;100.00;97762.50;5000727;28;20534;-80
2021/01/08 06:21:47;;;;;;;6.17;3.50;;;1.20;99.90;;;1.90;100.00;97767.66;5002939;28;20459;-81
2021/01/08 06:24:25;;;;;;;7.07;3.20;;;1.20;99.90;;;1.90;100.00;97772.81;5002254;28;20545;-81
2021/01/08 06:26:54;;;;;;;5.67;3.00;;;1.20;99.90;;;1.94;100.00;97774.19;4999422;28;20478;-81
2021/01/08 06:29:24;;;;;;;3.83;2.90;;;1.30;99.90;;;1.90;100.00;97771.06;5002870;28;20443;-81
2021/01/08 06:31:54;;;;;;;5.90;3.03;;;1.30;99.90;;;1.89;100.00;97772.00;5000340;28;20478;-81
2021/01/08 06:34:26;;;;;;;3.83;2.70;;;1.20;99.90;;;1.90;100.00;97776.22;5001376;28;20476;-81
2021/01/08 06:37:06;;;;;;;3.53;2.90;;;1.20;99.90;;;1.89;100.00;97768.63;5001072;28;20494;-81
2021/01/08 06:39:36;;;;;;;10.53;5.23;;;1.20;99.90;;;1.84;100.00;97770.81;5001580;28;20946;-81
2021/01/08 06:42:07;;;;;;;5.93;3.53;;;1.20;99.90;;;1.86;100.00;97772.28;5003616;28;20451;-81
2021/01/08 06:44:35;;;;;;;4.33;2.97;;;1.20;99.90;;;1.86;100.00;97771.47;4999528;28;20881;-81
2021/01/08 06:47:06;;;;;;;3.80;2.90;;;1.20;99.90;;;1.88;100.00;97777.28;5000543;28;20467;-81
2021/01/08 06:49:45;;;;;;;4.50;2.80;;;1.30;99.90;;;1.89;100.00;97778.94;5001728;28;20472;-81
2021/01/08 06:52:15;;;;;;;3.90;2.90;;;1.30;99.90;;;1.87;100.00;97776.50;5000282;28;20467;-81
2021/01/08 06:54:43;;;;;;;6.50;3.50;;;1.30;99.90;;;1.88;100.00;97772.13;5000098;28;20964;-81
2021/01/08 06:57:18;;;;;;;3.60;3.00;;;1.30;99.90;;;1.88;100.00;97778.09;5000136;28;20468;-81
2021/01/08 06:59:54;;;;;;;4.90;3.00;;;1.20;99.90;;;1.83;100.00;97787.22;5000796;28;20462;-80
2021/01/08 07:02:26;;;;;;;5.37;2.90;;;1.20;99.90;;;1.80;100.00;97785.75;5001158;28;20489;-81
2021/01/08 07:04:55;;;;;;;5.37;3.20;;;1.10;99.90;;;1.80;100.00;97779.78;4999556;28;20523;-81
2021/01/08 07:07:26;;;;;;;4.37;2.90;;;1.10;99.90;;;1.84;100.00;97794.00;5001785;28;20475;-81
2021/01/08 07:09:55;;;;;;;4.77;3.27;;;1.20;99.90;;;1.81;100.00;97796.84;4998501;28;20570;-81
2021/01/08 07:12:24;;;;;;;5.10;3.33;;;1.20;99.90;;;1.82;100.00;97798.47;4999869;28;20467;-81
2021/01/08 07:14:52;;;;;;;2.83;2.47;;;1.20;99.90;;;1.83;100.00;97794.94;4998797;28;20471;-81
2021/01/08 07:17:31;;;;;;;4.73;3.37;;;1.20;99.90;;;1.81;100.00;97800.22;5001581;28;20474;-80
2021/01/08 07:20:01;;;;;;;5.43;3.20;;;1.20;99.90;;;1.83;100.00;97813.00;4998071;28;20878;-81
2021/01/08 07:22:38;;;;;;;3.17;2.83;;;1.20;99.90;;;1.84;100.00;97807.69;5000142;28;20479;-81
2021/01/08 07:25:12;;;;;;;4.13;3.60;;;1.20;99.90;;;1.82;100.00;97811.38;5000295;28;20509;-81
2021/01/08 07:27:42;;;;;;;5.07;3.60;;;1.10;99.90;;;1.84;100.00;97806.91;4999497;28;20459;-81
2021/01/08 07:30:13;;;;;;;4.77;3.30;;;1.20;99.90;;;1.84;100.00;97812.84;4999500;28;20471;-81
2021/01/08 07:32:43;;;;;;;4.20;3.60;;;1.30;99.90;;;1.84;100.00;97809.47;4998004;28;20549;-80
2021/01/08 07:35:20;;;;;;;7.60;3.90;;;1.30;99.90;;;1.85;100.00;97821.38;4999108;28;20500;-81
2021/01/08 07:38:02;;;;;;;3.40;2.83;;;1.20;99.90;;;1.85;100.00;97811.09;5001056;28;20482;-81
2021/01/08 07:40:33;;;;;;;4.00;3.00;;;1.30;99.90;;;1.86;100.00;97815.28;4998461;28;20472;-81
2021/01/08 07:43:03;;;;;;;3.70;3.10;;;1.20;99.90;;;1.82;100.00;97817.34;4999685;28;20474;-81
2021/01/08 07:45:49;;;;;;;3.67;2.90;;;1.30;99.90;;;1.81;100.00;97825.19;4997169;28;20888;-81
2021/01/08 07:48:23;;;;;;;4.50;2.80;;;1.20;99.90;;;1.81;100.00;97828.59;4993632;28;20753;-81
2021/01/08 07:50:58;;;;;;;4.73;3.47;;;1.20;99.90;;;1.81;100.00;97836.31;4996928;28;20979;-83
2021/01/08 07:53:52;;;;;;;12.63;5.93;;;1.20;99.90;;;1.78;100.00;97833.19;4999065;28;20466;-81
2021/01/08 07:56:23;;;;;;;6.27;3.07;;;1.10;99.90;;;1.77;100.00;97842.69;5001339;28;21061;-81
2021/01/08 07:59:03;;;;;;;4.70;3.30;;;1.10;99.90;;;1.81;100.00;97846.63;5001074;28;20454;-81
2021/01/08 08:01:32;;;;;;;4.90;3.63;;;1.20;99.90;;;1.79;100.00;97847.72;4995902;28;20529;-81
2021/01/08 08:04:03;;;;;;;6.37;3.50;;;1.30;99.90;;;1.78;100.00;97846.91;4997636;28;20573;-80
2021/01/08 08:06:33;;;;;;;5.40;3.63;;;1.30;99.90;;;1.77;100.00;97857.38;4998895;28;20471;-80
2021/01/08 08:09:03;;;;;;;3.57;2.90;;;1.20;99.90;;;1.77;100.00;97859.94;4997765;28;20878;-80
2021/01/08 08:11:34;;;;;;;4.77;3.60;;;1.10;99.90;;;1.80;100.00;97860.50;4998713;28;20957;-80
2021/01/08 08:14:05;;;;;;;4.73;3.50;;;1.10;99.90;;;1.82;100.00;97862.91;4997127;28;20927;-80
2021/01/08 08:16:35;;;;;;;5.57;3.43;;;1.20;99.90;;;1.82;100.00;97863.72;4997106;28;20511;-80
2021/01/08 08:19:05;;;;;;;3.57;3.10;;;1.10;99.90;;;1.84;100.00;97873.91;4994608;28;21220;-80
2021/01/08 08:21:34;;;;;;;4.30;3.60;;;1.20;99.90;;;1.85;100.00;97868.59;4999157;28;20496;-80
2021/01/08 08:24:03;;;;;;;5.27;3.43;;;1.20;99.90;;;1.88;100.00;97865.75;4996671;28;20498;-80
2021/01/08 08:26:33;;;;;;;3.60;3.10;;;1.20;99.90;;;1.90;100.00;97874.19;4999525;28;20867;-80
2021/01/08 08:29:03;;;;;;;7.50;4.23;;;1.20;99.90;;;1.92;100.00;97872.25;5000237;28;20830;-81
2021/01/08 08:31:33;;;;;;;5.23;3.40;;;1.30;99.90;;;1.96;100.00;97867.66;4999791;28;20507;-80
2021/01/08 08:34:01;;;;;;;4.83;2.80;;;1.30;99.90;;;1.99;100.00;97869.94;4998061;28;20495;-80
2021/01/08 08:36:31;;;;;;;4.37;3.27;;;1.40;99.90;;;1.98;100.00;97874.28;4995630;28;20474;-80
2021/01/08 08:39:07;;;;;;;5.10;2.90;;;1.40;99.90;;;1.96;100.00;97877.97;4997214;28;20961;-80
2021/01/08 08:41:36;;;;;;;4.40;3.07;;;1.30;99.90;;;1.98;100.00;97886.34;4996780;28;20474;-81
2021/01/08 08:44:07;;;;;;;19.80;10.43;;;1.30;99.90;;;2.02;100.00;97887.72;4997172;28;20585;-81
2021/01/08 08:46:43;;;;;;;4.87;3.63;;;1.30;99.90;;;2.06;100.00;97885.69;5000192;28;20463;-80
2021/01/08 08:49:12;;;;;;;4.00;3.40;;;1.30;99.90;;;2.07;100.00;97890.72;5002205;28;20517;-81
2021/01/08 08:51:49;;;;;;;6.50;4.10;;;1.30;99.90;;;2.11;100.00;97893.81;5001863;28;20470;-81
2021/01/08 08:54:18;;;;;;;6.73;3.60;;;1.40;99.90;;;2.12;100.00;97903.97;5000524;28;20471;-78
2021/01/08 08:56:52;;;;;;;6.20;4.30;;;1.50;99.90;;;2.15;100.00;97898.56;5000929;28;20459;-85
2021/01/08 08:59:42;;;;;;;5.53;4.00;;;1.50;99.90;;;2.14;100.00;97903.84;5001835;28;20485;-87
2021/01/08 09:02:23;;;;;;;9.57;3.20;;;1.50;99.90;;;2.16;100.00;97895.03;5002369;28;20998;-84
2021/01/08 09:04:51;;;;;;;6.33;3.63;;;1.50;99.90;;;2.15;100.00;97908.91;5001724;28;21014;-86
2021/01/08 09:07:29;;;;;;;5.50;3.70;;;1.50;99.90;;;2.18;100.00;97910.38;5001218;28;20467;-86
2021/01/08 09:10:09;;;;;;;4.90;3.60;;;1.50;99.90;;;2.15;100.00;97903.72;5002041;28;21599;-86
2021/01/08 09:12:45;;;;;;;5.50;3.63;;;1.40;99.90;;;2.19;100.00;97902.47;5000914;28;20478;-86
2021/01/08 09:15:23;;;;;;;6.47;4.27;;;1.50;99.90;;;2.22;100.00;97912.53;4986159;28;20471;-86
2021/01/08 09:18:07;;;;;;;5.90;4.20;;;1.60;99.90;;;2.24;100.00;97910.63;5003834;28;20800;-86
2021/01/08 09:21:04;;;;;;;5.07;3.57;;;1.60;99.90;;;2.28;100.00;97919.72;5002403;28;20568;-85
2021/01/08 09:23:38;;;;;;;6.10;4.23;;;1.60;99.90;;;2.26;100.00;97915.63;5001478;28;20503;-85
2021/01/08 09:26:08;;;;;;;6.97;3.77;;;1.60;99.90;;;2.30;100.00;97925.56;5002368;28;20467;-86
2021/01/08 09:28:45;;;;;;;6.23;4.20;;;1.70;99.90;;;2.30;100.00;97928.13;5002169;28;20470;-86
2021/01/08 09:31:14;;;;;;;7.97;4.70;;;1.70;99.90;;;2.31;100.00;97932.34;5001115;28;20566;-85
2021/01/08 09:33:56;;;;;;;4.60;3.80;;;1.60;99.90;;;2.32;100.00;97923.66;4969137;28;20553;-86
2021/01/08 09:36:31;;;;;;;6.73;4.00;;;1.70;99.90;;;2.33;100.00;97924.44;4967046;28;20494;-85
2021/01/08 09:39:04;;;;;;;5.70;3.87;;;1.80;99.90;;;2.33;100.00;97922.69;5000883;28;20470;-86
2021/01/08 09:41:34;;;;;;;5.57;3.50;;;1.70;99.90;;;2.36;100.00;97927.56;5002732;28;20467;-84
2021/01/08 09:44:06;;;;;;;5.73;4.33;;;1.70;99.90;;;2.40;100.00;97941.81;5002507;28;20533;-85
2021/01/08 09:46:55;;;;;;;10.33;5.27;;;1.80;99.90;;;2.44;100.00;97930.28;4983986;28;20467;-85
2021/01/08 09:49:24;;;;;;;6.57;5.20;;;1.90;99.90;;;2.42;100.00;97929.63;5000964;28;21066;-84
2021/01/08 09:52:01;;;;;;;7.23;4.70;;;1.80;99.90;;;2.45;100.00;97931.91;4998365;28;20475;-86
2021/01/08 09:54:45;;;;;;;5.50;4.57;;;1.80;99.90;;;2.46;100.00;97933.53;4999868;28;20471;-84
2021/01/08 09:57:35;;;;;;;12.53;5.50;;;1.90;99.90;;;2.46;100.00;97936.09;5001094;28;20944;-85
2021/01/08 10:00:07;;;;;;;6.07;4.23;;;1.80;99.90;;;2.48;100.00;97943.72;5001891;28;20474;-85
2021/01/08 10:02:56;;;;;;;5.30;3.67;;;1.80;99.90;;;2.52;100.00;97937.34;4999805;28;20502;-85
2021/01/08 10:05:28;;;;;;;5.60;4.00;;;1.80;99.90;;;2.56;100.00;97937.88;4998842;28;20495;-85
2021/01/08 10:07:57;;;;;;;4.93;3.90;;;1.90;99.90;;;2.57;100.00;97948.03;4998029;28;20572;-86
2021/01/08 10:10:42;;;;;;;5.83;3.87;;;1.90;99.90;;;2.57;100.00;97942.88;5000565;28;20489;-85
2021/01/08 10:13:21;;;;;;;6.57;4.70;;;2.00;99.90;;;2.60;100.00;97941.81;4998885;28;20514;-85
2021/01/08 10:15:51;;;;;;;7.63;4.10;;;2.00;99.90;;;2.59;100.00;97937.59;5000182;28;20492;-85
2021/01/08 10:18:26;;;;;;;5.57;4.10;;;2.00;99.90;;;2.59;100.00;97940.16;4999631;28;20959;-85
2021/01/08 10:20:58;;;;;;;5.67;4.17;;;2.00;99.90;;;2.59;100.00;97946.16;4984817;28;20466;-86
2021/01/08 10:23:27;;;;;;;6.57;4.63;;;2.00;99.90;;;2.60;100.00;97942.63;4999241;28;20474;-85
2021/01/08 10:26:11;;;;;;;5.23;4.00;;;2.00;99.90;;;2.67;100.00;97937.72;4999452;28;20475;-85
2021/01/08 10:28:51;;;;;;;7.97;3.93;;;2.10;99.90;;;2.62;100.00;97943.28;5002085;28;20444;-84
2021/01/08 10:31:21;;;;;;;7.13;4.00;;;1.90;99.90;;;2.66;100.00;97939.47;4999596;28;20486;-82
2021/01/08 10:33:50;;;;;;;11.40;4.50;;;2.00;99.90;;;2.71;100.00;97939.06;4998857;28;20506;-83
2021/01/08 10:36:18;;;;;;;6.77;4.90;;;2.10;99.90;;;2.73;100.00;97937.97;4998622;28;20471;-83
2021/01/08 10:38:45;;;;;;;6.70;4.87;;;2.10;99.90;;;2.73;100.00;97937.13;5000173;28;20482;-83
2021/01/08 10:41:17;;;;;;;7.33;4.87;;;2.10;99.90;;;2.80;100.00;97941.59;5000681;28;20470;-83